sensor_id;sensor_type;location;lat;lon;timestamp;P1;durP1;ratioP1;P2;durP2;ratioP2
20988;SDS011;10653;47.052;15.410;2023-12-29T00:01:16;34.15;;;27.70;;
20988;SDS011;10653;47.052;15.410;2023-12-29T00:03:43;32.90;;;26.10;;
20988;SDS011;10653;47.052;15.410;2023-12-29T00:06:09;30.23;;;26.57;;
20988;SDS011;10653;47.052;15.410;2023-12-29T00:08:38;37.45;;;28.73;;
20988;SDS011;10653;47.052;15.410;2023-12-29T00:11:04;34.63;;;27.80;;
20988;SDS011;10653;47.052;15.410;2023-12-29T00:13:30;30.50;;;25.85;;
20988;SDS011;10653;47.052;15.410;2023-12-29T00:15:56;28.73;;;24.80;;
20988;SDS011;10653;47.052;15.410;2023-12-29T00:18:22;32.33;;;28.63;;
20988;SDS011;10653;47.052;15.410;2023-12-29T00:20:49;38.03;;;32.05;;
20988;SDS011;10653;47.052;15.410;2023-12-29T00:23:15;37.10;;;29.88;;
20988;SDS011;10653;47.052;15.410;2023-12-29T00:25:41;31.30;;;27.90;;
20988;SDS011;10653;47.052;15.410;2023-12-29T00:28:07;32.20;;;26.25;;
20988;SDS011;10653;47.052;15.410;2023-12-29T00:30:33;32.17;;;26.77;;
20988;SDS011;10653;47.052;15.410;2023-12-29T00:33:03;27.98;;;24.98;;
20988;SDS011;10653;47.052;15.410;2023-12-29T00:35:29;27.60;;;23.10;;
20988;SDS011;10653;47.052;15.410;2023-12-29T00:37:55;28.17;;;24.10;;
20988;SDS011;10653;47.052;15.410;2023-12-29T00:40:21;33.45;;;26.13;;
20988;SDS011;10653;47.052;15.410;2023-12-29T00:42:47;28.90;;;25.80;;
20988;SDS011;10653;47.052;15.410;2023-12-29T00:45:13;34.78;;;25.90;;
20988;SDS011;10653;47.052;15.410;2023-12-29T00:47:39;35.60;;;29.38;;
20988;SDS011;10653;47.052;15.410;2023-12-29T00:50:05;30.90;;;27.43;;
20988;SDS011;10653;47.052;15.410;2023-12-29T00:52:32;33.05;;;27.17;;
20988;SDS011;10653;47.052;15.410;2023-12-29T00:54:58;30.45;;;25.75;;
20988;SDS011;10653;47.052;15.410;2023-12-29T00:57:24;28.63;;;25.63;;
20988;SDS011;10653;47.052;15.410;2023-12-29T00:59:50;30.90;;;27.00;;
20988;SDS011;10653;47.052;15.410;2023-12-29T01:02:16;31.70;;;26.38;;
20988;SDS011;10653;47.052;15.410;2023-12-29T01:04:42;28.75;;;25.33;;
20988;SDS011;10653;47.052;15.410;2023-12-29T01:07:08;29.73;;;26.03;;
20988;SDS011;10653;47.052;15.410;2023-12-29T01:09:38;27.80;;;24.83;;
20988;SDS011;10653;47.052;15.410;2023-12-29T01:12:05;27.52;;;24.58;;
20988;SDS011;10653;47.052;15.410;2023-12-29T01:14:31;29.55;;;24.67;;
20988;SDS011;10653;47.052;15.410;2023-12-29T01:16:57;27.70;;;24.47;;
20988;SDS011;10653;47.052;15.410;2023-12-29T01:19:23;29.20;;;26.17;;
20988;SDS011;10653;47.052;15.410;2023-12-29T01:21:49;32.63;;;25.20;;
20988;SDS011;10653;47.052;15.410;2023-12-29T01:24:15;27.90;;;25.07;;
20988;SDS011;10653;47.052;15.410;2023-12-29T01:26:41;29.40;;;24.93;;
20988;SDS011;10653;47.052;15.410;2023-12-29T01:29:07;27.63;;;23.07;;
20988;SDS011;10653;47.052;15.410;2023-12-29T01:31:33;27.27;;;24.30;;
20988;SDS011;10653;47.052;15.410;2023-12-29T01:33:59;25.77;;;23.07;;
20988;SDS011;10653;47.052;15.410;2023-12-29T01:36:25;28.38;;;24.80;;
20988;SDS011;10653;47.052;15.410;2023-12-29T01:38:51;28.40;;;24.05;;
20988;SDS011;10653;47.052;15.410;2023-12-29T01:41:19;24.67;;;22.07;;
20988;SDS011;10653;47.052;15.410;2023-12-29T01:46:29;29.08;;;24.88;;
20988;SDS011;10653;47.052;15.410;2023-12-29T01:48:56;24.98;;;22.25;;
20988;SDS011;10653;47.052;15.410;2023-12-29T01:51:23;25.60;;;22.83;;
20988;SDS011;10653;47.052;15.410;2023-12-29T01:53:51;25.58;;;22.90;;
20988;SDS011;10653;47.052;15.410;2023-12-29T01:56:18;26.45;;;23.75;;
20988;SDS011;10653;47.052;15.410;2023-12-29T01:58:44;26.50;;;23.55;;
20988;SDS011;10653;47.052;15.410;2023-12-29T02:01:10;27.63;;;23.08;;
20988;SDS011;10653;47.052;15.410;2023-12-29T02:03:37;27.00;;;23.05;;
20988;SDS011;10653;47.052;15.410;2023-12-29T02:06:04;26.73;;;23.45;;
20988;SDS011;10653;47.052;15.410;2023-12-29T02:08:31;25.52;;;22.27;;
20988;SDS011;10653;47.052;15.410;2023-12-29T02:10:57;25.42;;;22.67;;
20988;SDS011;10653;47.052;15.410;2023-12-29T02:13:24;26.17;;;23.35;;
20988;SDS011;10653;47.052;15.410;2023-12-29T02:15:50;27.77;;;22.87;;
20988;SDS011;10653;47.052;15.410;2023-12-29T02:18:18;27.85;;;23.42;;
20988;SDS011;10653;47.052;15.410;2023-12-29T02:20:44;25.52;;;22.90;;
20988;SDS011;10653;47.052;15.410;2023-12-29T02:23:10;25.25;;;22.65;;
20988;SDS011;10653;47.052;15.410;2023-12-29T02:25:36;27.13;;;24.23;;
20988;SDS011;10653;47.052;15.410;2023-12-29T02:30:29;30.05;;;25.92;;
20988;SDS011;10653;47.052;15.410;2023-12-29T02:32:59;27.75;;;24.48;;
20988;SDS011;10653;47.052;15.410;2023-12-29T02:35:26;28.42;;;24.30;;
20988;SDS011;10653;47.052;15.410;2023-12-29T02:37:53;27.60;;;24.77;;
20988;SDS011;10653;47.052;15.410;2023-12-29T02:40:20;28.05;;;25.08;;
20988;SDS011;10653;47.052;15.410;2023-12-29T02:42:49;26.30;;;23.48;;
20988;SDS011;10653;47.052;15.410;2023-12-29T02:45:17;28.00;;;23.95;;
20988;SDS011;10653;47.052;15.410;2023-12-29T02:47:43;26.25;;;23.10;;
20988;SDS011;10653;47.052;15.410;2023-12-29T02:50:09;27.83;;;24.38;;
20988;SDS011;10653;47.052;15.410;2023-12-29T02:52:36;26.98;;;24.13;;
20988;SDS011;10653;47.052;15.410;2023-12-29T02:55:02;26.15;;;23.58;;
20988;SDS011;10653;47.052;15.410;2023-12-29T02:57:28;26.30;;;23.50;;
20988;SDS011;10653;47.052;15.410;2023-12-29T02:59:55;28.17;;;25.13;;
20988;SDS011;10653;47.052;15.410;2023-12-29T03:02:21;27.63;;;24.92;;
20988;SDS011;10653;47.052;15.410;2023-12-29T03:04:47;26.17;;;23.33;;
20988;SDS011;10653;47.052;15.410;2023-12-29T03:07:13;25.48;;;22.77;;
20988;SDS011;10653;47.052;15.410;2023-12-29T03:09:39;26.23;;;23.50;;
20988;SDS011;10653;47.052;15.410;2023-12-29T03:12:05;27.67;;;24.50;;
20988;SDS011;10653;47.052;15.410;2023-12-29T03:14:31;26.75;;;23.23;;
20988;SDS011;10653;47.052;15.410;2023-12-29T03:16:57;25.33;;;21.43;;
20988;SDS011;10653;47.052;15.410;2023-12-29T03:19:24;26.75;;;24.02;;
20988;SDS011;10653;47.052;15.410;2023-12-29T03:21:50;27.30;;;23.95;;
20988;SDS011;10653;47.052;15.410;2023-12-29T03:24:17;25.50;;;22.95;;
20988;SDS011;10653;47.052;15.410;2023-12-29T03:26:43;26.45;;;22.50;;
20988;SDS011;10653;47.052;15.410;2023-12-29T03:29:09;28.23;;;23.90;;
20988;SDS011;10653;47.052;15.410;2023-12-29T03:31:35;23.40;;;21.02;;
20988;SDS011;10653;47.052;15.410;2023-12-29T03:34:01;22.02;;;19.58;;
20988;SDS011;10653;47.052;15.410;2023-12-29T03:36:27;23.42;;;19.17;;
20988;SDS011;10653;47.052;15.410;2023-12-29T03:38:53;22.60;;;19.80;;
20988;SDS011;10653;47.052;15.410;2023-12-29T03:41:19;22.83;;;20.40;;
20988;SDS011;10653;47.052;15.410;2023-12-29T03:43:45;23.70;;;20.85;;
20988;SDS011;10653;47.052;15.410;2023-12-29T03:46:20;23.98;;;21.42;;
20988;SDS011;10653;47.052;15.410;2023-12-29T03:48:47;22.23;;;19.92;;
20988;SDS011;10653;47.052;15.410;2023-12-29T03:51:13;23.75;;;20.58;;
20988;SDS011;10653;47.052;15.410;2023-12-29T03:53:39;22.70;;;20.20;;
20988;SDS011;10653;47.052;15.410;2023-12-29T03:56:06;23.33;;;19.90;;
20988;SDS011;10653;47.052;15.410;2023-12-29T03:58:33;22.60;;;20.20;;
20988;SDS011;10653;47.052;15.410;2023-12-29T04:00:59;22.37;;;19.97;;
20988;SDS011;10653;47.052;15.410;2023-12-29T04:03:25;23.63;;;20.38;;
20988;SDS011;10653;47.052;15.410;2023-12-29T04:05:51;25.13;;;21.53;;
20988;SDS011;10653;47.052;15.410;2023-12-29T04:08:17;23.07;;;20.67;;
20988;SDS011;10653;47.052;15.410;2023-12-29T04:10:43;22.47;;;20.00;;
20988;SDS011;10653;47.052;15.410;2023-12-29T04:13:09;22.73;;;19.93;;
20988;SDS011;10653;47.052;15.410;2023-12-29T04:15:35;44.90;;;34.87;;
20988;SDS011;10653;47.052;15.410;2023-12-29T04:18:01;24.33;;;21.33;;
20988;SDS011;10653;47.052;15.410;2023-12-29T04:20:27;24.37;;;20.43;;
20988;SDS011;10653;47.052;15.410;2023-12-29T04:22:53;22.73;;;18.92;;
20988;SDS011;10653;47.052;15.410;2023-12-29T04:25:19;21.77;;;19.48;;
20988;SDS011;10653;47.052;15.410;2023-12-29T04:27:45;20.60;;;18.53;;
20988;SDS011;10653;47.052;15.410;2023-12-29T04:30:11;21.77;;;19.60;;
20988;SDS011;10653;47.052;15.410;2023-12-29T04:32:37;22.27;;;19.98;;
20988;SDS011;10653;47.052;15.410;2023-12-29T04:35:03;22.02;;;19.67;;
20988;SDS011;10653;47.052;15.410;2023-12-29T04:37:29;22.15;;;19.25;;
20988;SDS011;10653;47.052;15.410;2023-12-29T04:39:55;22.87;;;20.47;;
20988;SDS011;10653;47.052;15.410;2023-12-29T04:42:21;21.45;;;18.90;;
20988;SDS011;10653;47.052;15.410;2023-12-29T04:44:47;22.40;;;20.00;;
20988;SDS011;10653;47.052;15.410;2023-12-29T04:47:13;21.05;;;18.85;;
20988;SDS011;10653;47.052;15.410;2023-12-29T04:49:39;21.65;;;19.38;;
20988;SDS011;10653;47.052;15.410;2023-12-29T04:52:05;23.20;;;19.60;;
20988;SDS011;10653;47.052;15.410;2023-12-29T04:54:31;25.77;;;20.20;;
20988;SDS011;10653;47.052;15.410;2023-12-29T04:56:57;22.00;;;19.47;;
20988;SDS011;10653;47.052;15.410;2023-12-29T04:59:23;25.20;;;19.30;;
20988;SDS011;10653;47.052;15.410;2023-12-29T05:01:49;25.40;;;20.23;;
20988;SDS011;10653;47.052;15.410;2023-12-29T05:04:15;26.92;;;22.00;;
20988;SDS011;10653;47.052;15.410;2023-12-29T05:06:42;22.27;;;19.92;;
20988;SDS011;10653;47.052;15.410;2023-12-29T05:09:07;22.20;;;19.80;;
20988;SDS011;10653;47.052;15.410;2023-12-29T05:11:34;26.23;;;23.42;;
20988;SDS011;10653;47.052;15.410;2023-12-29T05:14:00;22.40;;;20.00;;
20988;SDS011;10653;47.052;15.410;2023-12-29T05:16:26;25.77;;;20.97;;
20988;SDS011;10653;47.052;15.410;2023-12-29T05:18:52;21.45;;;19.15;;
20988;SDS011;10653;47.052;15.410;2023-12-29T05:21:18;27.85;;;21.88;;
20988;SDS011;10653;47.052;15.410;2023-12-29T05:23:44;23.13;;;20.65;;
20988;SDS011;10653;47.052;15.410;2023-12-29T05:26:11;23.70;;;20.08;;
20988;SDS011;10653;47.052;15.410;2023-12-29T05:28:37;23.55;;;19.77;;
20988;SDS011;10653;47.052;15.410;2023-12-29T05:31:03;27.20;;;21.80;;
20988;SDS011;10653;47.052;15.410;2023-12-29T05:33:30;23.83;;;20.25;;
20988;SDS011;10653;47.052;15.410;2023-12-29T05:35:56;24.60;;;20.75;;
20988;SDS011;10653;47.052;15.410;2023-12-29T05:38:22;21.98;;;18.90;;
20988;SDS011;10653;47.052;15.410;2023-12-29T05:40:48;19.65;;;17.70;;
20988;SDS011;10653;47.052;15.410;2023-12-29T05:43:14;21.63;;;19.42;;
20988;SDS011;10653;47.052;15.410;2023-12-29T05:45:40;23.13;;;20.73;;
20988;SDS011;10653;47.052;15.410;2023-12-29T05:48:06;26.17;;;20.58;;
20988;SDS011;10653;47.052;15.410;2023-12-29T05:50:33;21.02;;;18.25;;
20988;SDS011;10653;47.052;15.410;2023-12-29T05:52:59;24.65;;;20.15;;
20988;SDS011;10653;47.052;15.410;2023-12-29T05:55:25;21.20;;;19.08;;
20988;SDS011;10653;47.052;15.410;2023-12-29T05:57:51;23.00;;;19.38;;
20988;SDS011;10653;47.052;15.410;2023-12-29T06:00:17;21.95;;;19.60;;
20988;SDS011;10653;47.052;15.410;2023-12-29T06:02:43;22.70;;;19.85;;
20988;SDS011;10653;47.052;15.410;2023-12-29T06:05:12;22.58;;;20.13;;
20988;SDS011;10653;47.052;15.410;2023-12-29T06:07:39;27.10;;;20.30;;
20988;SDS011;10653;47.052;15.410;2023-12-29T06:10:05;21.35;;;18.83;;
20988;SDS011;10653;47.052;15.410;2023-12-29T06:12:31;20.08;;;17.77;;
20988;SDS011;10653;47.052;15.410;2023-12-29T06:14:57;22.90;;;18.65;;
20988;SDS011;10653;47.052;15.410;2023-12-29T06:17:23;19.98;;;17.80;;
20988;SDS011;10653;47.052;15.410;2023-12-29T06:19:49;25.25;;;20.45;;
20988;SDS011;10653;47.052;15.410;2023-12-29T06:22:15;23.67;;;18.45;;
20988;SDS011;10653;47.052;15.410;2023-12-29T06:24:41;20.58;;;18.38;;
20988;SDS011;10653;47.052;15.410;2023-12-29T06:27:11;22.83;;;20.23;;
20988;SDS011;10653;47.052;15.410;2023-12-29T06:29:37;28.02;;;20.38;;
20988;SDS011;10653;47.052;15.410;2023-12-29T06:32:03;23.30;;;18.70;;
20988;SDS011;10653;47.052;15.410;2023-12-29T06:34:29;21.00;;;18.75;;
20988;SDS011;10653;47.052;15.410;2023-12-29T06:36:55;21.55;;;19.05;;
20988;SDS011;10653;47.052;15.410;2023-12-29T06:39:21;20.33;;;18.23;;
20988;SDS011;10653;47.052;15.410;2023-12-29T06:41:48;21.55;;;18.27;;
20988;SDS011;10653;47.052;15.410;2023-12-29T06:44:14;22.50;;;19.38;;
20988;SDS011;10653;47.052;15.410;2023-12-29T06:46:40;20.65;;;18.45;;
20988;SDS011;10653;47.052;15.410;2023-12-29T06:49:07;21.75;;;19.40;;
20988;SDS011;10653;47.052;15.410;2023-12-29T06:51:34;20.83;;;18.17;;
20988;SDS011;10653;47.052;15.410;2023-12-29T06:54:00;23.63;;;21.17;;
20988;SDS011;10653;47.052;15.410;2023-12-29T06:56:27;20.98;;;18.88;;
20988;SDS011;10653;47.052;15.410;2023-12-29T06:58:53;22.58;;;19.90;;
20988;SDS011;10653;47.052;15.410;2023-12-29T07:01:19;20.75;;;18.73;;
20988;SDS011;10653;47.052;15.410;2023-12-29T07:03:45;21.17;;;18.77;;
20988;SDS011;10653;47.052;15.410;2023-12-29T07:06:11;22.13;;;19.52;;
20988;SDS011;10653;47.052;15.410;2023-12-29T07:08:37;23.70;;;20.15;;
20988;SDS011;10653;47.052;15.410;2023-12-29T07:11:03;22.42;;;19.88;;
20988;SDS011;10653;47.052;15.410;2023-12-29T07:13:29;26.25;;;22.45;;
20988;SDS011;10653;47.052;15.410;2023-12-29T07:15:55;23.15;;;20.65;;
20988;SDS011;10653;47.052;15.410;2023-12-29T07:18:22;24.17;;;20.90;;
20988;SDS011;10653;47.052;15.410;2023-12-29T07:20:48;25.95;;;21.70;;
20988;SDS011;10653;47.052;15.410;2023-12-29T07:23:14;23.70;;;20.87;;
20988;SDS011;10653;47.052;15.410;2023-12-29T07:25:40;22.30;;;20.07;;
20988;SDS011;10653;47.052;15.410;2023-12-29T07:28:06;32.17;;;28.67;;
20988;SDS011;10653;47.052;15.410;2023-12-29T07:30:32;30.88;;;25.25;;
20988;SDS011;10653;47.052;15.410;2023-12-29T07:32:58;23.60;;;21.10;;
20988;SDS011;10653;47.052;15.410;2023-12-29T07:35:24;26.52;;;21.63;;
20988;SDS011;10653;47.052;15.410;2023-12-29T07:37:50;23.48;;;20.98;;
20988;SDS011;10653;47.052;15.410;2023-12-29T07:40:16;23.23;;;20.73;;
20988;SDS011;10653;47.052;15.410;2023-12-29T07:42:42;24.85;;;21.88;;
20988;SDS011;10653;47.052;15.410;2023-12-29T07:45:09;24.67;;;21.92;;
20988;SDS011;10653;47.052;15.410;2023-12-29T07:47:35;31.38;;;23.95;;
20988;SDS011;10653;47.052;15.410;2023-12-29T07:50:02;26.25;;;23.13;;
20988;SDS011;10653;47.052;15.410;2023-12-29T07:52:28;28.75;;;23.20;;
20988;SDS011;10653;47.052;15.410;2023-12-29T07:54:54;28.52;;;24.20;;
20988;SDS011;10653;47.052;15.410;2023-12-29T07:57:20;29.53;;;24.20;;
20988;SDS011;10653;47.052;15.410;2023-12-29T07:59:46;26.67;;;22.98;;
20988;SDS011;10653;47.052;15.410;2023-12-29T08:02:12;23.53;;;21.00;;
20988;SDS011;10653;47.052;15.410;2023-12-29T08:04:38;27.38;;;23.13;;
20988;SDS011;10653;47.052;15.410;2023-12-29T08:07:04;28.17;;;22.80;;
20988;SDS011;10653;47.052;15.410;2023-12-29T08:09:30;29.88;;;24.13;;
20988;SDS011;10653;47.052;15.410;2023-12-29T08:11:56;30.07;;;23.30;;
20988;SDS011;10653;47.052;15.410;2023-12-29T08:14:22;26.07;;;22.70;;
20988;SDS011;10653;47.052;15.410;2023-12-29T08:16:48;30.50;;;23.70;;
20988;SDS011;10653;47.052;15.410;2023-12-29T08:19:14;26.63;;;23.25;;
20988;SDS011;10653;47.052;15.410;2023-12-29T08:21:41;25.10;;;21.85;;
20988;SDS011;10653;47.052;15.410;2023-12-29T08:24:07;26.03;;;23.07;;
20988;SDS011;10653;47.052;15.410;2023-12-29T08:26:33;27.35;;;22.40;;
20988;SDS011;10653;47.052;15.410;2023-12-29T08:28:59;23.90;;;20.75;;
20988;SDS011;10653;47.052;15.410;2023-12-29T08:31:25;25.67;;;20.90;;
20988;SDS011;10653;47.052;15.410;2023-12-29T08:33:53;24.33;;;20.20;;
20988;SDS011;10653;47.052;15.410;2023-12-29T08:36:20;24.60;;;21.40;;
20988;SDS011;10653;47.052;15.410;2023-12-29T08:38:46;27.80;;;21.25;;
20988;SDS011;10653;47.052;15.410;2023-12-29T08:41:15;21.70;;;19.20;;
20988;SDS011;10653;47.052;15.410;2023-12-29T08:43:41;20.75;;;18.33;;
20988;SDS011;10653;47.052;15.410;2023-12-29T08:46:07;22.65;;;18.98;;
20988;SDS011;10653;47.052;15.410;2023-12-29T08:48:33;19.95;;;17.40;;
20988;SDS011;10653;47.052;15.410;2023-12-29T08:50:59;20.80;;;17.67;;
20988;SDS011;10653;47.052;15.410;2023-12-29T08:53:26;20.80;;;16.90;;
20988;SDS011;10653;47.052;15.410;2023-12-29T08:55:52;17.67;;;15.35;;
20988;SDS011;10653;47.052;15.410;2023-12-29T08:58:18;16.20;;;13.55;;
20988;SDS011;10653;47.052;15.410;2023-12-29T09:00:44;16.83;;;15.10;;
20988;SDS011;10653;47.052;15.410;2023-12-29T09:03:10;18.10;;;14.37;;
20988;SDS011;10653;47.052;15.410;2023-12-29T09:05:36;14.63;;;13.00;;
20988;SDS011;10653;47.052;15.410;2023-12-29T09:08:02;19.50;;;13.38;;
20988;SDS011;10653;47.052;15.410;2023-12-29T09:10:28;12.77;;;11.27;;
20988;SDS011;10653;47.052;15.410;2023-12-29T09:12:54;12.05;;;10.68;;
20988;SDS011;10653;47.052;15.410;2023-12-29T09:15:20;10.63;;;9.53;;
20988;SDS011;10653;47.052;15.410;2023-12-29T09:17:46;10.20;;;9.30;;
20988;SDS011;10653;47.052;15.410;2023-12-29T09:20:12;10.83;;;9.70;;
20988;SDS011;10653;47.052;15.410;2023-12-29T09:22:39;12.18;;;9.63;;
20988;SDS011;10653;47.052;15.410;2023-12-29T09:25:05;12.65;;;9.90;;
20988;SDS011;10653;47.052;15.410;2023-12-29T09:27:31;10.18;;;9.20;;
20988;SDS011;10653;47.052;15.410;2023-12-29T09:29:57;11.77;;;9.73;;
20988;SDS011;10653;47.052;15.410;2023-12-29T09:32:23;9.30;;;8.30;;
20988;SDS011;10653;47.052;15.410;2023-12-29T09:34:49;9.40;;;8.37;;
20988;SDS011;10653;47.052;15.410;2023-12-29T09:37:17;11.52;;;9.30;;
20988;SDS011;10653;47.052;15.410;2023-12-29T09:39:43;8.93;;;8.02;;
20988;SDS011;10653;47.052;15.410;2023-12-29T09:42:09;9.80;;;6.83;;
20988;SDS011;10653;47.052;15.410;2023-12-29T09:44:38;9.18;;;8.20;;
20988;SDS011;10653;47.052;15.410;2023-12-29T09:47:04;10.70;;;7.20;;
20988;SDS011;10653;47.052;15.410;2023-12-29T09:49:36;10.05;;;8.70;;
20988;SDS011;10653;47.052;15.410;2023-12-29T09:52:03;13.90;;;9.18;;
20988;SDS011;10653;47.052;15.410;2023-12-29T09:54:30;13.20;;;9.57;;
20988;SDS011;10653;47.052;15.410;2023-12-29T09:56:57;10.98;;;8.85;;
20988;SDS011;10653;47.052;15.410;2023-12-29T09:59:23;10.68;;;8.88;;
20988;SDS011;10653;47.052;15.410;2023-12-29T10:01:50;12.93;;;9.02;;
20988;SDS011;10653;47.052;15.410;2023-12-29T10:04:17;10.87;;;8.33;;
20988;SDS011;10653;47.052;15.410;2023-12-29T10:06:43;12.18;;;9.32;;
20988;SDS011;10653;47.052;15.410;2023-12-29T10:09:11;10.23;;;8.25;;
20988;SDS011;10653;47.052;15.410;2023-12-29T10:11:38;12.27;;;8.47;;
20988;SDS011;10653;47.052;15.410;2023-12-29T10:14:18;15.70;;;9.90;;
20988;SDS011;10653;47.052;15.410;2023-12-29T10:16:48;15.23;;;11.70;;
20988;SDS011;10653;47.052;15.410;2023-12-29T10:21:52;16.97;;;11.50;;
20988;SDS011;10653;47.052;15.410;2023-12-29T10:24:21;12.70;;;10.73;;
20988;SDS011;10653;47.052;15.410;2023-12-29T10:26:48;13.63;;;9.83;;
20988;SDS011;10653;47.052;15.410;2023-12-29T10:29:14;11.50;;;9.57;;
20988;SDS011;10653;47.052;15.410;2023-12-29T10:31:40;10.03;;;8.60;;
20988;SDS011;10653;47.052;15.410;2023-12-29T10:37:00;14.50;;;10.07;;
20988;SDS011;10653;47.052;15.410;2023-12-29T10:39:28;10.53;;;8.20;;
20988;SDS011;10653;47.052;15.410;2023-12-29T10:42:27;11.17;;;9.10;;
20988;SDS011;10653;47.052;15.410;2023-12-29T10:44:46;9.23;;;8.20;;
20988;SDS011;10653;47.052;15.410;2023-12-29T10:47:12;11.80;;;8.50;;
20988;SDS011;10653;47.052;15.410;2023-12-29T10:49:39;8.10;;;7.07;;
20988;SDS011;10653;47.052;15.410;2023-12-29T10:54:39;10.30;;;7.80;;
20988;SDS011;10653;47.052;15.410;2023-12-29T10:57:05;11.10;;;6.67;;
20988;SDS011;10653;47.052;15.410;2023-12-29T10:59:31;10.37;;;7.50;;
20988;SDS011;10653;47.052;15.410;2023-12-29T11:01:57;15.50;;;8.23;;
20988;SDS011;10653;47.052;15.410;2023-12-29T11:04:27;7.60;;;6.80;;
20988;SDS011;10653;47.052;15.410;2023-12-29T11:06:53;8.70;;;7.13;;
20988;SDS011;10653;47.052;15.410;2023-12-29T11:12:04;14.00;;;7.43;;
20988;SDS011;10653;47.052;15.410;2023-12-29T11:14:31;8.87;;;7.43;;
20988;SDS011;10653;47.052;15.410;2023-12-29T11:16:58;9.90;;;8.13;;
20988;SDS011;10653;47.052;15.410;2023-12-29T11:19:25;12.10;;;7.97;;
20988;SDS011;10653;47.052;15.410;2023-12-29T11:21:52;10.67;;;8.20;;
20988;SDS011;10653;47.052;15.410;2023-12-29T11:24:20;10.57;;;8.63;;
20988;SDS011;10653;47.052;15.410;2023-12-29T11:26:46;11.37;;;8.10;;
20988;SDS011;10653;47.052;15.410;2023-12-29T11:29:12;11.03;;;7.87;;
20988;SDS011;10653;47.052;15.410;2023-12-29T11:31:38;8.30;;;7.30;;
20988;SDS011;10653;47.052;15.410;2023-12-29T11:34:05;10.27;;;7.70;;
20988;SDS011;10653;47.052;15.410;2023-12-29T11:36:33;9.00;;;6.90;;
20988;SDS011;10653;47.052;15.410;2023-12-29T11:41:33;7.17;;;6.00;;
20988;SDS011;10653;47.052;15.410;2023-12-29T11:44:02;7.13;;;6.30;;
20988;SDS011;10653;47.052;15.410;2023-12-29T11:49:03;8.07;;;7.07;;
20988;SDS011;10653;47.052;15.410;2023-12-29T11:53:55;8.80;;;7.90;;
20988;SDS011;10653;47.052;15.410;2023-12-29T11:56:22;9.53;;;8.27;;
20988;SDS011;10653;47.052;15.410;2023-12-29T11:58:48;9.47;;;7.63;;
20988;SDS011;10653;47.052;15.410;2023-12-29T12:01:25;8.60;;;6.90;;
20988;SDS011;10653;47.052;15.410;2023-12-29T12:03:58;8.00;;;6.80;;
20988;SDS011;10653;47.052;15.410;2023-12-29T12:06:36;10.33;;;6.80;;
20988;SDS011;10653;47.052;15.410;2023-12-29T12:09:22;10.77;;;6.83;;
20988;SDS011;10653;47.052;15.410;2023-12-29T12:11:50;8.17;;;6.53;;
20988;SDS011;10653;47.052;15.410;2023-12-29T12:14:42;9.07;;;7.00;;
20988;SDS011;10653;47.052;15.410;2023-12-29T12:17:03;12.10;;;8.17;;
20988;SDS011;10653;47.052;15.410;2023-12-29T12:19:30;11.87;;;6.77;;
20988;SDS011;10653;47.052;15.410;2023-12-29T12:22:00;7.90;;;6.50;;
20988;SDS011;10653;47.052;15.410;2023-12-29T12:24:27;9.40;;;6.33;;
20988;SDS011;10653;47.052;15.410;2023-12-29T12:26:54;8.60;;;7.07;;
20988;SDS011;10653;47.052;15.410;2023-12-29T12:29:20;8.60;;;6.10;;
20988;SDS011;10653;47.052;15.410;2023-12-29T12:31:55;8.07;;;5.83;;
20988;SDS011;10653;47.052;15.410;2023-12-29T12:34:22;8.37;;;5.97;;
20988;SDS011;10653;47.052;15.410;2023-12-29T12:36:48;6.43;;;5.70;;
20988;SDS011;10653;47.052;15.410;2023-12-29T12:39:15;6.90;;;6.03;;
20988;SDS011;10653;47.052;15.410;2023-12-29T12:41:41;10.00;;;6.70;;
20988;SDS011;10653;47.052;15.410;2023-12-29T12:44:11;9.10;;;7.40;;
20988;SDS011;10653;47.052;15.410;2023-12-29T12:49:12;7.50;;;5.50;;
20988;SDS011;10653;47.052;15.410;2023-12-29T12:51:39;6.80;;;5.60;;
20988;SDS011;10653;47.052;15.410;2023-12-29T12:54:05;7.00;;;5.30;;
20988;SDS011;10653;47.052;15.410;2023-12-29T12:56:32;9.60;;;6.13;;
20988;SDS011;10653;47.052;15.410;2023-12-29T12:58:58;7.60;;;6.60;;
20988;SDS011;10653;47.052;15.410;2023-12-29T13:01:27;10.67;;;7.70;;
20988;SDS011;10653;47.052;15.410;2023-12-29T13:03:53;7.83;;;5.93;;
20988;SDS011;10653;47.052;15.410;2023-12-29T13:06:20;7.57;;;5.43;;
20988;SDS011;10653;47.052;15.410;2023-12-29T13:08:48;7.90;;;5.93;;
20988;SDS011;10653;47.052;15.410;2023-12-29T13:11:18;9.03;;;6.63;;
20988;SDS011;10653;47.052;15.410;2023-12-29T13:13:46;7.13;;;5.83;;
20988;SDS011;10653;47.052;15.410;2023-12-29T13:16:13;6.40;;;5.27;;
20988;SDS011;10653;47.052;15.410;2023-12-29T13:18:39;8.47;;;6.40;;
20988;SDS011;10653;47.052;15.410;2023-12-29T13:21:05;8.03;;;5.70;;
20988;SDS011;10653;47.052;15.410;2023-12-29T13:23:31;8.33;;;5.60;;
20988;SDS011;10653;47.052;15.410;2023-12-29T13:26:07;6.47;;;5.47;;
20988;SDS011;10653;47.052;15.410;2023-12-29T13:28:33;8.30;;;5.50;;
20988;SDS011;10653;47.052;15.410;2023-12-29T13:30:59;6.37;;;5.30;;
20988;SDS011;10653;47.052;15.410;2023-12-29T13:33:31;5.80;;;4.30;;
20988;SDS011;10653;47.052;15.410;2023-12-29T13:36:09;9.10;;;4.83;;
20988;SDS011;10653;47.052;15.410;2023-12-29T13:38:39;5.70;;;4.60;;
20988;SDS011;10653;47.052;15.410;2023-12-29T13:41:09;7.63;;;4.93;;
20988;SDS011;10653;47.052;15.410;2023-12-29T13:43:36;5.17;;;4.17;;
20988;SDS011;10653;47.052;15.410;2023-12-29T13:46:04;6.50;;;4.40;;
20988;SDS011;10653;47.052;15.410;2023-12-29T13:48:30;7.00;;;4.07;;
20988;SDS011;10653;47.052;15.410;2023-12-29T13:50:58;5.40;;;3.97;;
20988;SDS011;10653;47.052;15.410;2023-12-29T13:53:25;6.30;;;4.10;;
20988;SDS011;10653;47.052;15.410;2023-12-29T13:55:51;8.73;;;4.20;;
20988;SDS011;10653;47.052;15.410;2023-12-29T13:58:17;6.80;;;4.50;;
20988;SDS011;10653;47.052;15.410;2023-12-29T14:00:43;5.90;;;4.40;;
20988;SDS011;10653;47.052;15.410;2023-12-29T14:03:22;5.60;;;3.80;;
20988;SDS011;10653;47.052;15.410;2023-12-29T14:05:52;6.90;;;4.60;;
20988;SDS011;10653;47.052;15.410;2023-12-29T14:08:30;7.50;;;4.80;;
20988;SDS011;10653;47.052;15.410;2023-12-29T14:10:58;6.87;;;5.00;;
20988;SDS011;10653;47.052;15.410;2023-12-29T14:13:24;6.77;;;4.63;;
20988;SDS011;10653;47.052;15.410;2023-12-29T14:15:51;7.83;;;4.90;;
20988;SDS011;10653;47.052;15.410;2023-12-29T14:20:46;8.53;;;4.80;;
20988;SDS011;10653;47.052;15.410;2023-12-29T14:23:12;9.00;;;5.33;;
20988;SDS011;10653;47.052;15.410;2023-12-29T14:25:39;10.80;;;5.80;;
20988;SDS011;10653;47.052;15.410;2023-12-29T14:28:14;8.67;;;6.80;;
20988;SDS011;10653;47.052;15.410;2023-12-29T14:30:41;9.10;;;6.07;;
20988;SDS011;10653;47.052;15.410;2023-12-29T14:33:07;9.93;;;6.50;;
20988;SDS011;10653;47.052;15.410;2023-12-29T14:35:33;11.30;;;7.80;;
20988;SDS011;10653;47.052;15.410;2023-12-29T14:37:59;8.80;;;7.60;;
20988;SDS011;10653;47.052;15.410;2023-12-29T14:40:26;11.60;;;7.67;;
20988;SDS011;10653;47.052;15.410;2023-12-29T14:42:52;12.53;;;7.27;;